Terminal Aerodrome Forecast
Issued by NWS Paducah, KY

Home | Current Version | Previous Version | Text Only | Print | Product List | Glossary On
Versions: 1 2 3 4 5 6 7 8 9 10 11 12 13 14 15 16 17 18 19 20 21 22 23
028
FTUS43 KPAH 070531
TAFPAH
TAF
KPAH 070531Z 0706/0806 22003KT P6SM SCT250
     FM071600 22010G15KT P6SM BKN200
     FM080000 27007KT P6SM SCT050 OVC100=

USA.gov is the U.S. government's official web portal to all federal, state and local government web resources and services.